Time;durP1;ratioP1;P1;durP2;ratioP2;P2;SDS_P1;SDS_P2;PMS_P1;PMS_P2;Temp;Humidity;BMP_temperature;BMP_pressure;BME280_temperature;BME280_humidity;BME280_pressure;Samples;Min_cycle;Max_cycle;Signal;HPM_P1;HPM_P2
2022/01/05 00:00:43;;;;;;;37.70;14.40;;;;;;;5.08;31.03;98026.50;5041220;28;20153;-69
2022/01/05 00:03:09;;;;;;;33.73;14.13;;;;;;;5.29;30.90;98023.38;5074494;28;20040;-70
2022/01/05 00:05:35;;;;;;;30.03;13.57;;;;;;;4.88;31.92;98019.06;5058262;28;20036;-68
2022/01/05 00:08:01;;;;;;;36.90;15.17;;;;;;;5.19;31.20;98033.25;5057474;28;20130;-70
2022/01/05 00:10:27;;;;;;;32.80;14.50;;;;;;;5.05;31.31;98041.78;5057294;28;20613;-69
2022/01/05 00:12:53;;;;;;;30.83;13.57;;;;;;;5.18;31.19;98036.88;5090895;28;20177;-68
2022/01/05 00:15:20;;;;;;;31.70;14.23;;;;;;;5.30;31.25;98025.03;5074239;28;20051;-69
2022/01/05 00:17:45;;;;;;;30.90;14.20;;;;;;;5.12;31.56;98026.97;5057545;28;20036;-69
2022/01/05 00:20:12;;;;;;;35.80;14.03;;;;;;;5.39;31.42;98039.84;5057411;28;20110;-70
2022/01/05 00:22:38;;;;;;;41.20;15.17;;;;;;;4.63;31.30;98005.03;5057962;28;20129;-70
2022/01/05 00:25:04;;;;;;;36.00;15.27;;;;;;;4.98;31.57;98035.53;5074406;28;20083;-70
2022/01/05 00:27:30;;;;;;;36.13;14.73;;;;;;;4.81;31.75;98024.13;5074104;28;21080;-69
2022/01/05 00:29:57;;;;;;;34.63;15.00;;;;;;;5.07;31.19;97997.72;5057055;28;20142;-72
2022/01/05 00:32:23;;;;;;;36.53;15.53;;;;;;;5.52;30.83;98013.81;5057191;28;20047;-72
2022/01/05 00:34:49;;;;;;;35.57;14.60;;;;;;;5.48;30.65;98012.53;5057021;28;20096;-72
2022/01/05 00:37:15;;;;;;;33.87;15.10;;;;;;;5.52;30.84;98013.81;5040523;28;20529;-72
2022/01/05 00:39:41;;;;;;;36.67;14.60;;;;;;;5.41;30.71;98016.81;5090946;28;20053;-70
2022/01/05 00:42:07;;;;;;;38.20;15.13;;;;;;;5.52;30.99;98011.19;5057831;28;20043;-73
2022/01/05 00:44:33;;;;;;;39.30;16.03;;;;;;;5.31;30.90;98015.31;5074023;28;20040;-73
2022/01/05 00:46:59;;;;;;;35.53;15.50;;;;;;;5.31;31.17;98012.69;5090497;28;20518;-70
2022/01/05 00:49:26;;;;;;;39.23;14.73;;;;;;;5.31;30.80;98015.31;5090534;28;20139;-71
2022/01/05 00:51:52;;;;;;;219.77;81.10;;;;;;;5.35;31.48;98017.44;5056862;28;20126;-71
2022/01/05 00:54:18;;;;;;;40.33;15.63;;;;;;;4.95;31.70;98001.66;5073512;28;20097;-71
2022/01/05 00:56:44;;;;;;;36.73;15.70;;;;;;;5.09;31.39;98006.25;5073546;28;20040;-71
2022/01/05 00:59:10;;;;;;;40.03;15.90;;;;;;;5.04;31.65;98012.00;5040640;28;20143;-71
2022/01/05 01:01:36;;;;;;;36.30;16.33;;;;;;;5.13;31.45;97991.81;5057209;28;20047;-69
2022/01/05 01:04:03;;;;;;;37.33;15.00;;;;;;;5.35;31.78;98004.28;5073413;28;20043;-71
2022/01/05 01:06:30;;;;;;;40.97;16.00;;;;;;;5.56;31.45;98003.78;5039550;28;20047;-71
2022/01/05 01:08:59;;;;;;;38.70;16.90;;;;;;;5.78;31.52;97990.75;5089835;28;20058;-71
2022/01/05 01:11:25;;;;;;;35.23;15.40;;;;;;;5.45;31.72;97990.97;5056054;28;20542;-70
2022/01/05 01:13:51;;;;;;;38.70;14.80;;;;;;;5.57;31.46;97995.72;5090069;28;20048;-71
2022/01/05 01:16:19;;;;;;;37.83;15.23;;;;;;;6.08;31.18;97987.41;5089959;28;20126;-71
2022/01/05 01:18:44;;;;;;;41.27;15.47;;;;;;;5.44;31.83;97986.69;5090339;28;20151;-71
2022/01/05 01:21:10;;;;;;;40.50;15.43;;;;;;;4.71;32.63;97976.13;5040162;28;20103;-70
2022/01/05 01:23:37;;;;;;;40.50;16.03;;;;;;;5.04;32.12;97934.91;5089804;28;20040;-70
2022/01/05 01:26:03;;;;;;;41.57;16.90;;;;;;;4.90;32.59;97969.75;5089918;28;20047;-70
2022/01/05 01:28:29;;;;;;;39.67;15.63;;;;;;;4.65;32.69;97950.50;5072588;28;20044;-69
2022/01/05 01:30:57;;;;;;;40.90;15.17;;;;;;;5.69;32.27;97983.84;5072793;28;20049;-69
2022/01/05 01:33:22;;;;;;;40.13;16.47;;;;;;;5.00;32.60;97967.78;5072388;28;20067;-68
2022/01/05 01:35:48;;;;;;;47.20;17.13;;;;;;;4.73;33.18;97960.19;5072415;28;20129;-70
2022/01/05 01:38:14;;;;;;;44.93;17.27;;;;;;;5.34;32.31;97968.44;5056174;28;20056;-70
2022/01/05 01:40:40;;;;;;;43.10;17.67;;;;;;;4.91;32.75;97961.69;5072927;28;20043;-70
2022/01/05 01:43:06;;;;;;;39.33;15.90;;;;;;;5.52;32.06;97963.00;5055824;28;20461;-72
2022/01/05 01:45:37;;;;;;;40.40;16.57;;;;;;;6.06;32.08;97954.31;5072743;28;20404;-69
2022/01/05 01:48:03;;;;;;;37.03;16.00;;;;;;;5.80;31.94;97958.97;5072218;28;20411;-70
2022/01/05 01:50:29;;;;;;;37.87;15.60;;;;;;;5.56;31.90;97953.75;5089226;28;20047;-69
2022/01/05 01:52:54;;;;;;;42.40;16.63;;;;;;;5.44;32.18;97961.19;5089058;28;20064;-67
2022/01/05 01:55:21;;;;;;;38.47;16.10;;;;;;;4.93;32.58;97925.56;5072424;28;20055;-70
2022/01/05 01:57:47;;;;;;;38.47;16.83;;;;;;;5.27;32.58;97922.72;5089205;28;20050;-72
2022/01/05 02:00:14;;;;;;;50.27;17.43;;;;;;;5.09;33.15;97937.84;5090482;28;20055;-70
2022/01/05 02:02:43;;;;;;;39.13;16.60;;;;;;;5.69;33.00;97938.28;5072791;28;20052;-71
2022/01/05 02:05:09;;;;;;;44.33;16.93;;;;;;;5.70;32.47;97939.91;5038916;28;20044;-71
2022/01/05 02:07:35;;;;;;;44.43;17.70;;;;;;;5.85;32.12;97944.34;5072240;28;20131;-71
2022/01/05 02:10:04;;;;;;;46.00;16.30;;;;;;;5.97;32.32;97940.34;5090267;28;20059;-71
2022/01/05 02:12:30;;;;;;;43.40;17.63;;;;;;;5.66;32.29;97930.72;5055541;28;20048;-71
2022/01/05 02:14:56;;;;;;;50.23;18.17;;;;;;;5.78;32.22;97917.00;5056459;28;20070;-70
2022/01/05 02:17:29;;;;;;;43.57;16.07;;;;;;;5.64;32.02;97920.34;5089141;28;20408;-70
2022/01/05 02:19:55;;;;;;;51.03;17.57;;;;;;;5.88;31.90;97920.31;5092295;28;20044;-70
2022/01/05 02:22:21;;;;;;;54.70;18.93;;;;;;;5.28;32.75;97915.63;5059727;28;20369;-71
2022/01/05 02:24:47;;;;;;;48.43;16.80;;;;;;;5.83;32.41;97905.97;5060004;28;20036;-70
2022/01/05 02:27:15;;;;;;;39.90;17.27;;;;;;;6.58;31.57;97910.56;5093564;28;20105;-70
2022/01/05 02:29:40;;;;;;;41.70;16.57;;;;;;;5.90;31.68;97881.44;5093086;28;20131;-70
2022/01/05 02:32:06;;;;;;;50.57;18.03;;;;;;;5.83;32.13;97911.25;5043310;28;20032;-71
2022/01/05 02:34:32;;;;;;;49.97;16.87;;;;;;;5.48;32.13;97880.06;5076579;28;20051;-70
2022/01/05 02:36:58;;;;;;;47.30;17.63;;;;;;;5.58;32.75;97894.66;5059410;28;20101;-70
2022/01/05 02:39:24;;;;;;;43.27;16.93;;;;;;;5.86;32.73;97887.22;5059421;28;20055;-70
2022/01/05 02:41:50;;;;;;;51.67;18.23;;;;;;;6.11;32.07;97894.00;5059324;28;20352;-71
2022/01/05 02:44:16;;;;;;;53.10;17.97;;;;;;;5.73;32.59;97895.63;5093096;28;20126;-70
2022/01/05 02:46:41;;;;;;;41.80;16.27;;;;;;;5.89;32.24;97895.59;5092861;28;20151;-69
2022/01/05 02:49:07;;;;;;;55.57;18.37;;;;;;;5.91;32.16;97893.63;5076103;28;20400;-69
2022/01/05 02:51:33;;;;;;;49.73;19.03;;;;;;;6.00;32.10;97874.13;5093098;28;20511;-70
2022/01/05 02:53:59;;;;;;;47.77;17.07;;;;;;;5.77;32.18;97885.56;5094141;28;20047;-69
2022/01/05 02:56:24;;;;;;;55.57;19.30;;;;;;;6.12;31.65;97883.28;5092500;28;20051;-70
2022/01/05 02:58:50;;;;;;;48.03;19.30;;;;;;;5.61;32.53;97881.19;5075989;28;20112;-71
2022/01/05 03:01:16;;;;;;;49.20;17.73;;;;;;;5.85;32.45;97882.94;5059198;28;20063;-68
2022/01/05 03:03:42;;;;;;;51.47;18.90;;;;;;;5.58;32.46;97870.97;5059141;28;20151;-68
2022/01/05 03:06:08;;;;;;;50.63;18.40;;;;;;;6.04;32.04;97879.91;5058938;28;20383;-70
2022/01/05 03:08:33;;;;;;;53.03;18.20;;;;;;;6.39;31.52;97888.09;5075897;28;20415;-70
2022/01/05 03:10:59;;;;;;;60.50;19.60;;;;;;;6.44;31.82;97875.19;5075473;28;20500;-70
2022/01/05 03:13:27;;;;;;;51.30;19.27;;;;;;;6.14;31.82;97870.78;5041672;28;20500;-71
2022/01/05 03:15:55;;;;;;;59.53;19.00;;;;;;;6.11;31.96;97867.66;5075184;28;20040;-69
2022/01/05 03:18:21;;;;;;;51.67;17.90;;;;;;;6.22;31.46;97875.19;5075210;28;20051;-75
2022/01/05 03:20:47;;;;;;;42.73;17.70;;;;;;;6.07;31.21;97863.75;5075507;28;20044;-72
2022/01/05 03:23:13;;;;;;;54.50;19.50;;;;;;;6.19;31.80;97864.97;5092085;28;20040;-72
2022/01/05 03:25:40;;;;;;;45.07;17.43;;;;;;;5.72;31.82;97864.19;5058301;28;20039;-69
2022/01/05 03:28:06;;;;;;;57.87;19.67;;;;;;;6.21;31.93;97863.00;5092185;28;20498;-68
2022/01/05 03:30:33;;;;;;;51.40;18.60;;;;;;;5.86;32.16;97853.78;5074158;28;20139;-70
2022/01/05 03:35:29;;;;;;;47.43;19.10;;;;;;;6.15;31.78;97853.97;5075073;28;20448;-70
2022/01/05 03:37:55;;;;;;;43.97;16.95;;;;;;;5.51;32.24;97859.50;5041586;28;20047;-70
2022/01/05 03:40:21;;;;;;;51.17;17.87;;;;;;;5.67;32.57;97854.19;5092978;28;20051;-69
2022/01/05 03:42:47;;;;;;;45.53;17.17;;;;;;;5.18;32.73;97842.16;5091554;28;20047;-69
2022/01/05 03:45:13;;;;;;;51.40;17.63;;;;;;;5.67;32.23;97856.81;5074868;28;20040;-70
2022/01/05 03:47:39;;;;;;;46.57;18.27;;;;;;;5.02;32.55;97782.50;5091391;28;20040;-70
2022/01/05 03:50:05;;;;;;;48.90;16.47;;;;;;;5.38;32.80;97801.31;5074102;28;20479;-71
2022/01/05 03:52:32;;;;;;;50.83;18.83;;;;;;;5.13;32.93;97840.03;5092262;28;20494;-70
2022/01/05 03:54:58;;;;;;;47.40;17.50;;;;;;;5.18;33.18;97836.91;5090977;28;20040;-69
2022/01/05 03:57:25;;;;;;;42.70;16.47;;;;;;;5.02;33.25;97842.19;5074178;28;20071;-69
2022/01/05 03:59:51;;;;;;;43.27;16.60;;;;;;;5.24;33.02;97836.22;5092719;28;20051;-69
2022/01/05 04:02:17;;;;;;;46.90;17.27;;;;;;;4.84;33.54;97833.66;5074020;28;20176;-69
2022/01/05 04:04:43;;;;;;;48.07;18.30;;;;;;;4.93;33.21;97837.91;5091039;28;20044;-68
2022/01/05 04:07:09;;;;;;;44.53;16.40;;;;;;;5.33;33.02;97840.47;5074049;28;20071;-69
2022/01/05 04:09:35;;;;;;;45.10;16.80;;;;;;;5.26;33.03;97838.69;5090838;28;20071;-69
2022/01/05 04:12:01;;;;;;;48.03;17.67;;;;;;;5.56;32.30;97832.66;5074173;28;20044;-67
2022/01/05 04:14:26;;;;;;;43.77;17.20;;;;;;;5.35;32.55;97827.94;5057208;28;20032;-70
2022/01/05 04:16:52;;;;;;;46.67;16.40;;;;;;;5.51;32.66;97822.63;5074895;28;20101;-68
2022/01/05 04:19:18;;;;;;;46.23;16.27;;;;;;;5.69;32.32;97814.50;5074199;28;20093;-69
2022/01/05 04:21:44;;;;;;;41.20;15.77;;;;;;;5.61;32.23;97814.53;5090927;28;20930;-68
2022/01/05 04:24:09;;;;;;;44.77;16.80;;;;;;;5.62;32.53;97819.63;5057256;28;20048;-68
2022/01/05 04:26:35;;;;;;;43.07;16.80;;;;;;;5.40;32.18;97795.88;5090605;28;20404;-68
2022/01/05 04:29:01;;;;;;;50.40;16.73;;;;;;;5.17;32.72;97828.16;5090519;28;20044;-70
2022/01/05 04:31:26;;;;;;;44.53;16.07;;;;;;;5.26;32.73;97821.06;5057235;28;20139;-71
2022/01/05 04:33:52;;;;;;;46.10;16.80;;;;;;;5.33;32.62;97837.84;5090579;28;20047;-71
2022/01/05 04:36:18;;;;;;;44.00;17.20;;;;;;;4.98;33.16;97825.09;5091749;28;20044;-71
2022/01/05 04:38:43;;;;;;;39.97;16.30;;;;;;;5.77;32.02;97815.28;5073618;28;20403;-69
2022/01/05 04:41:09;;;;;;;39.10;16.07;;;;;;;5.71;32.30;97815.97;5057013;28;20043;-71
2022/01/05 04:43:35;;;;;;;41.23;16.37;;;;;;;6.00;31.63;97818.81;5039664;28;20415;-72
2022/01/05 04:46:01;;;;;;;37.80;15.40;;;;;;;5.82;31.44;97834.06;5056840;28;20407;-72
2022/01/05 04:48:27;;;;;;;43.37;15.60;;;;;;;5.34;32.33;97828.13;5091575;28;20462;-72
2022/01/05 04:50:53;;;;;;;38.27;15.63;;;;;;;5.51;32.24;97806.00;5090934;28;20043;-69
2022/01/05 04:53:18;;;;;;;34.50;15.20;;;;;;;5.69;31.84;97817.94;5073405;28;20040;-72
2022/01/05 04:55:44;;;;;;;45.37;15.27;;;;;;;5.40;32.59;97803.78;5073226;28;20050;-69
2022/01/05 04:58:11;;;;;;;45.73;15.57;;;;;;;5.55;32.36;97815.22;5073631;28;20504;-70
2022/01/05 05:00:36;;;;;;;41.53;15.63;;;;;;;5.34;32.34;97807.06;5057287;28;20043;-71
2022/01/05 05:03:03;;;;;;;42.37;15.40;;;;;;;5.42;32.44;97799.97;5073361;28;20051;-71
2022/01/05 05:05:29;;;;;;;44.83;15.20;;;;;;;5.07;32.79;97803.84;5089805;28;20043;-71
2022/01/05 05:07:54;;;;;;;45.90;15.90;;;;;;;5.27;32.73;97798.22;5090350;28;20461;-71
2022/01/05 05:10:20;;;;;;;41.10;15.80;;;;;;;5.40;32.45;97794.03;5089649;28;20060;-71
2022/01/05 05:12:46;;;;;;;35.90;14.83;;;;;;;5.16;32.67;97771.28;5089756;28;20931;-71
2022/01/05 05:15:12;;;;;;;34.07;14.80;;;;;;;4.95;32.91;97776.25;5056283;28;20154;-72
2022/01/05 05:17:37;;;;;;;35.30;15.40;;;;;;;5.25;33.44;97777.34;5056302;28;20039;-69
2022/01/05 05:20:04;;;;;;;37.40;14.77;;;;;;;5.45;33.11;97775.09;5056093;28;20036;-70
2022/01/05 05:22:30;;;;;;;35.70;15.50;;;;;;;5.28;32.97;97769.09;5089466;28;20047;-71
2022/01/05 05:24:55;;;;;;;38.10;14.53;;;;;;;4.89;33.35;97757.69;5056132;28;20039;-70
2022/01/05 05:27:22;;;;;;;42.03;14.43;;;;;;;4.82;33.29;97764.63;5072480;28;20051;-70
2022/01/05 05:29:50;;;;;;;40.30;15.03;;;;;;;5.02;33.53;97763.25;5106127;28;20043;-71
2022/01/05 05:32:15;;;;;;;35.23;13.97;;;;;;;4.93;33.24;97762.47;5089416;28;20126;-71
2022/01/05 05:34:41;;;;;;;36.57;15.03;;;;;;;5.10;32.97;97761.41;5106003;28;20181;-71
2022/01/05 05:37:07;;;;;;;39.53;14.57;;;;;;;4.87;33.18;97743.91;5089698;28;20478;-71
2022/01/05 05:39:33;;;;;;;39.73;14.13;;;;;;;5.09;33.20;97744.00;5088920;28;20040;-71
2022/01/05 05:41:59;;;;;;;31.07;13.47;;;;;;;4.88;33.29;97690.31;5089046;28;20101;-74
2022/01/05 05:44:27;;;;;;;37.87;13.83;;;;;;;4.85;33.56;97727.47;5089147;28;20095;-71
2022/01/05 05:46:53;;;;;;;38.03;14.80;;;;;;;5.11;33.22;97738.56;5072300;28;20043;-71
2022/01/05 05:49:18;;;;;;;36.23;13.80;;;;;;;5.24;33.00;97723.88;5055125;28;20067;-70
2022/01/05 05:51:47;;;;;;;40.80;14.23;;;;;;;5.24;32.56;97728.34;5088535;28;20428;-70
2022/01/05 05:54:13;;;;;;;38.53;14.67;;;;;;;4.72;33.49;97727.19;5071987;28;20046;-70
2022/01/05 05:56:39;;;;;;;28.63;13.00;;;;;;;4.99;33.05;97713.63;5071974;28;20131;-69
2022/01/05 05:59:04;;;;;;;31.83;12.90;;;;;;;4.75;32.87;97726.84;5088936;28;20162;-69
2022/01/05 06:01:30;;;;;;;38.50;13.60;;;;;;;4.75;33.23;97717.13;5090293;28;20040;-71
2022/01/05 06:03:56;;;;;;;31.00;13.80;;;;;;;5.03;33.21;97721.00;5089304;28;20048;-69
2022/01/05 06:06:22;;;;;;;36.20;14.70;;;;;;;4.84;33.52;97718.75;5055489;28;20197;-70
2022/01/05 06:08:47;;;;;;;30.07;12.53;;;;;;;4.75;33.32;97718.97;5072045;28;20044;-69
2022/01/05 06:11:13;;;;;;;35.43;13.33;;;;;;;5.03;33.22;97715.75;5072080;28;20052;-68
2022/01/05 06:13:39;;;;;;;30.90;13.30;;;;;;;4.85;33.69;97707.25;5039061;28;20036;-68
2022/01/05 06:16:05;;;;;;;32.43;13.43;;;;;;;4.84;33.09;97674.03;5071635;28;20133;-73
2022/01/05 06:18:30;;;;;;;33.27;13.07;;;;;;;4.93;32.95;97691.47;5055839;28;20182;-71
2022/01/05 06:20:56;;;;;;;32.20;13.83;;;;;;;4.77;33.09;97709.91;5072907;28;20040;-71
2022/01/05 06:23:22;;;;;;;35.07;13.80;;;;;;;5.06;32.95;97710.13;5090425;28;20147;-69
2022/01/05 06:25:47;;;;;;;31.17;13.20;;;;;;;4.94;33.27;97711.50;5089573;28;20052;-69
2022/01/05 06:28:13;;;;;;;32.73;13.53;;;;;;;5.05;33.13;97705.06;5072081;28;20397;-67
2022/01/05 06:30:39;;;;;;;34.03;12.40;;;;;;;5.25;32.98;97701.00;5071912;28;20476;-67
2022/01/05 06:33:05;;;;;;;32.17;13.03;;;;;;;5.45;32.64;97717.19;5071781;28;20056;-68
2022/01/05 06:35:31;;;;;;;31.23;14.07;;;;;;;5.11;32.53;97733.31;5072283;28;20093;-67
2022/01/05 06:37:57;;;;;;;30.97;13.70;;;;;;;4.73;33.41;97713.88;5089102;28;20043;-66
2022/01/05 06:40:23;;;;;;;32.27;12.90;;;;;;;5.41;32.96;97722.00;5054997;28;20043;-67
2022/01/05 06:42:49;;;;;;;33.37;14.17;;;;;;;5.21;33.13;97718.16;5088391;28;20131;-67
2022/01/05 06:45:15;;;;;;;35.83;14.77;;;;;;;4.85;33.07;97709.06;5088433;28;20139;-67
2022/01/05 06:47:41;;;;;;;31.67;13.57;;;;;;;4.98;33.12;97715.41;5055017;28;20040;-71
2022/01/05 06:50:08;;;;;;;27.13;13.40;;;;;;;5.31;32.88;97675.81;5054930;28;20533;-66
2022/01/05 06:52:34;;;;;;;33.43;13.47;;;;;;;5.62;32.47;97701.16;5088623;28;20043;-68
2022/01/05 06:55:00;;;;;;;35.83;15.00;;;;;;;5.19;32.44;97706.97;5072067;28;20483;-68
2022/01/05 06:57:25;;;;;;;31.13;13.90;;;;;;;5.24;32.51;97688.88;5054757;28;20043;-67
2022/01/05 06:59:51;;;;;;;38.27;14.63;;;;;;;5.16;32.58;97704.69;5055001;28;20512;-67
2022/01/05 07:02:17;;;;;;;37.83;14.30;;;;;;;5.16;32.95;97681.84;5088155;28;20067;-68
2022/01/05 07:04:43;;;;;;;34.97;13.90;;;;;;;4.90;33.38;97683.91;5054738;28;20036;-70
2022/01/05 07:07:09;;;;;;;26.93;13.07;;;;;;;5.02;32.79;97676.47;5093360;28;20403;-68
2022/01/05 07:09:34;;;;;;;30.57;13.70;;;;;;;4.90;33.62;97681.28;5074873;28;20056;-68
2022/01/05 07:12:00;;;;;;;30.67;13.33;;;;;;;5.06;33.50;97661.97;5075353;28;20101;-69
2022/01/05 07:14:26;;;;;;;31.70;13.27;;;;;;;5.20;33.26;97658.59;5093134;28;20043;-69
2022/01/05 07:16:52;;;;;;;29.53;13.70;;;;;;;4.81;33.27;97663.06;5056579;28;20040;-68
2022/01/05 07:19:20;;;;;;;30.13;12.97;;;;;;;5.16;33.40;97666.03;5070507;28;20039;-68
2022/01/05 07:21:47;;;;;;;31.10;12.87;;;;;;;5.51;33.05;97664.69;5055623;28;20046;-68
2022/01/05 07:24:16;;;;;;;31.30;13.60;;;;;;;4.87;33.32;97654.50;5088678;28;20044;-68
2022/01/05 07:26:42;;;;;;;29.00;14.17;;;;;;;5.10;33.62;97656.19;5073388;28;20193;-68
2022/01/05 07:29:07;;;;;;;33.57;13.60;;;;;;;5.06;33.36;97654.06;5072902;28;20506;-68
2022/01/05 07:31:33;;;;;;;37.67;13.80;;;;;;;5.09;33.25;97643.19;5074508;28;20043;-68
2022/01/05 07:33:59;;;;;;;34.87;13.97;;;;;;;4.90;33.54;97643.63;5092225;28;20503;-67
2022/01/05 07:36:25;;;;;;;29.23;12.77;;;;;;;5.27;33.26;97659.56;5091829;28;20142;-67
2022/01/05 07:38:51;;;;;;;33.53;13.60;;;;;;;5.26;33.05;97650.03;5091967;28;20067;-67
2022/01/05 07:41:16;;;;;;;37.50;14.53;;;;;;;4.90;33.31;97646.25;5074987;28;20078;-67
2022/01/05 07:43:42;;;;;;;33.47;12.73;;;;;;;4.61;33.80;97638.16;5093390;28;20483;-67
2022/01/05 07:46:08;;;;;;;34.90;13.17;;;;;;;4.43;34.58;97606.81;5092845;28;20046;-68
2022/01/05 07:48:37;;;;;;;33.17;14.40;;;;;;;4.47;34.92;97604.69;5075553;28;20039;-68
2022/01/05 07:51:02;;;;;;;30.43;13.60;;;;;;;5.07;33.75;97603.91;5091828;28;20044;-67
2022/01/05 07:53:28;;;;;;;36.53;13.57;;;;;;;4.56;34.81;97591.34;5091477;28;20044;-67
2022/01/05 07:55:54;;;;;;;29.07;13.00;;;;;;;4.75;34.89;97587.50;5074839;28;20150;-68
2022/01/05 07:58:23;;;;;;;31.80;13.27;;;;;;;4.62;34.88;97577.53;5092752;28;20054;-68
2022/01/05 08:00:49;;;;;;;34.57;13.13;;;;;;;5.38;34.09;97588.13;5091415;28;20047;-67
2022/01/05 08:03:15;;;;;;;31.60;13.77;;;;;;;5.03;34.46;97580.75;5092594;28;20080;-68
2022/01/05 08:05:41;;;;;;;32.27;12.87;;;;;;;4.69;34.50;97538.25;5073896;28;20521;-68
2022/01/05 08:08:06;;;;;;;36.60;13.17;;;;;;;5.39;33.51;97568.69;5074363;28;20044;-68
2022/01/05 08:10:32;;;;;;;25.00;11.33;;;;;;;5.36;33.27;97560.31;5091320;28;20062;-68
2022/01/05 08:12:58;;;;;;;28.93;12.17;;;;;;;5.14;33.76;97552.25;5057694;28;20127;-67
2022/01/05 08:15:24;;;;;;;32.10;12.70;;;;;;;5.04;33.46;97519.28;5091277;28;20048;-68
2022/01/05 08:17:50;;;;;;;24.60;11.60;;;;;;;4.91;34.00;97554.03;5074571;28;20040;-67
2022/01/05 08:20:18;;;;;;;24.47;11.33;;;;;;;5.64;33.52;97535.09;5091020;28;20093;-67
2022/01/05 08:22:46;;;;;;;23.50;10.80;;;;;;;5.33;34.02;97513.31;5074145;28;20153;-67
2022/01/05 08:25:16;;;;;;;20.30;9.70;;;;;;;5.53;33.86;97519.72;5090858;28;20039;-67
2022/01/05 08:27:46;;;;;;;20.33;9.63;;;;;;;5.37;34.09;97510.13;5074029;28;20064;-67
2022/01/05 08:30:14;;;;;;;21.87;10.13;;;;;;;5.31;34.35;97492.44;5090870;28;20067;-67
2022/01/05 08:32:40;;;;;;;26.67;10.63;;;;;;;4.80;34.48;97456.31;5092201;28;20043;-67
2022/01/05 08:35:07;;;;;;;23.37;10.37;;;;;;;5.47;33.78;97521.25;5057621;28;20065;-67
2022/01/05 08:37:32;;;;;;;25.93;10.27;;;;;;;5.49;33.91;97500.03;5074047;28;20495;-67
2022/01/05 08:39:58;;;;;;;19.93;9.80;;;;;;;5.23;33.70;97505.66;5091051;28;20051;-67
2022/01/05 08:42:24;;;;;;;20.83;9.50;;;;;;;4.97;34.23;97465.72;5090666;28;20047;-67
2022/01/05 08:44:49;;;;;;;21.40;9.30;;;;;;;5.28;33.69;97477.00;5073628;28;20044;-67
2022/01/05 08:47:15;;;;;;;19.47;9.43;;;;;;;5.20;34.13;97483.16;5073774;28;20047;-67
2022/01/05 08:49:41;;;;;;;21.43;10.00;;;;;;;5.09;34.05;97459.06;5090568;28;20495;-67
2022/01/05 08:52:07;;;;;;;18.23;9.47;;;;;;;4.88;34.98;97461.53;5090780;28;20043;-68
2022/01/05 08:54:33;;;;;;;20.80;9.33;;;;;;;5.02;34.17;97458.97;5073740;28;20036;-67
2022/01/05 08:56:59;;;;;;;20.47;9.70;;;;;;;5.29;34.16;97460.19;5073803;28;20246;-67
2022/01/05 08:59:24;;;;;;;14.60;8.17;;;;;;;5.19;34.21;97439.44;5073763;28;20078;-67
2022/01/05 09:01:51;;;;;;;26.50;10.40;;;;;;;4.98;34.96;97448.97;5073623;28;20074;-67
2022/01/05 09:04:17;;;;;;;29.43;11.83;;;;;;;4.64;35.07;97430.94;5091864;28;20040;-67
2022/01/05 09:06:43;;;;;;;23.27;11.03;;;;;;;5.23;34.49;97387.25;5056860;28;20047;-67
2022/01/05 09:09:09;;;;;;;21.67;9.43;;;;;;;4.74;34.39;97426.28;5057308;28;20040;-67
2022/01/05 09:11:35;;;;;;;19.00;8.83;;;;;;;5.07;34.62;97397.94;5090289;28;20499;-67
2022/01/05 09:14:02;;;;;;;21.57;9.33;;;;;;;5.42;35.08;97394.63;5073650;28;20056;-67
2022/01/05 09:16:29;;;;;;;20.30;9.30;;;;;;;5.27;34.88;97387.72;5090030;28;20488;-67
2022/01/05 09:18:55;;;;;;;22.47;10.60;;;;;;;5.41;34.40;97384.28;5089987;28;20075;-67
2022/01/05 09:21:21;;;;;;;25.60;8.97;;;;;;;5.28;34.38;97381.44;5073218;28;20082;-66
2022/01/05 09:23:46;;;;;;;24.90;9.13;;;;;;;5.48;34.42;97380.75;5073099;28;20135;-67
2022/01/05 09:26:12;;;;;;;21.77;9.50;;;;;;;5.51;33.77;97376.91;5089801;28;20047;-67
2022/01/05 09:28:42;;;;;;;19.23;8.83;;;;;;;5.38;34.76;97348.63;5072833;28;20044;-67
2022/01/05 09:31:08;;;;;;;26.73;11.77;;;;;;;5.71;34.29;97349.88;5073919;28;20074;-68
2022/01/05 09:33:34;;;;;;;27.93;10.23;;;;;;;5.64;34.20;97348.97;5089813;28;20050;-67
2022/01/05 09:36:06;;;;;;;24.10;9.57;;;;;;;6.07;33.88;97342.03;5056486;28;20379;-67
2022/01/05 09:41:56;;;;;;;22.37;9.97;;;;;;;6.09;33.57;97330.31;5089848;28;20131;-67
2022/01/05 09:44:09;;;;;;;22.67;10.50;;;;;;;6.11;34.14;97320.41;5089596;28;20051;-67
2022/01/05 09:46:48;;;;;;;22.02;9.00;;;;;;;5.89;33.80;97305.56;5072613;28;20413;-66
2022/01/05 09:49:28;;;;;;;19.27;9.13;;;;;;;6.19;34.43;97287.84;5089590;28;20134;-68
2022/01/05 09:51:55;;;;;;;26.30;10.00;;;;;;;5.51;34.96;97259.28;5090738;28;20463;-68
2022/01/05 09:54:22;;;;;;;23.67;9.60;;;;;;;5.82;35.00;97259.91;5056013;28;20044;-67
2022/01/05 09:56:50;;;;;;;27.17;11.20;;;;;;;6.10;34.23;97249.44;5072759;28;20097;-67
2022/01/05 09:59:16;;;;;;;25.50;11.13;;;;;;;5.33;34.88;97242.25;5090749;28;20079;-67
2022/01/05 10:01:41;;;;;;;24.47;10.83;;;;;;;5.53;34.73;97230.97;5056111;28;20064;-67
2022/01/05 10:04:07;;;;;;;26.63;10.07;;;;;;;5.78;34.96;97229.63;5072568;28;20040;-67
2022/01/05 10:06:34;;;;;;;24.17;10.37;;;;;;;5.56;34.64;97206.09;5088812;28;20040;-67
2022/01/05 10:09:00;;;;;;;24.63;10.10;;;;;;;5.40;34.90;97204.50;5072592;28;20046;-67
2022/01/05 10:11:26;;;;;;;24.50;11.63;;;;;;;5.23;35.36;97218.84;5055532;28;20418;-67
2022/01/05 10:13:51;;;;;;;23.37;10.50;;;;;;;5.39;35.02;97196.78;5055794;28;20516;-67
2022/01/05 10:16:17;;;;;;;25.80;10.67;;;;;;;5.53;35.45;97199.41;5055867;28;20083;-67
2022/01/05 10:18:44;;;;;;;20.63;10.07;;;;;;;5.88;35.22;97211.75;5056214;28;20174;-67
2022/01/05 10:21:14;;;;;;;33.73;11.87;;;;;;;6.31;34.48;97194.91;5072810;28;20039;-68
2022/01/05 10:23:50;;;;;;;24.33;9.37;;;;;;;6.00;34.25;97196.25;5089504;28;20518;-67
2022/01/05 10:26:39;;;;;;;22.27;10.30;;;;;;;6.38;34.22;97192.34;5072500;28;20452;-67
2022/01/05 10:29:07;;;;;;;23.00;10.10;;;;;;;6.31;34.47;97196.72;5089230;28;20047;-67
2022/01/05 10:31:38;;;;;;;23.07;10.53;;;;;;;5.97;34.77;97200.06;5055810;28;20419;-67
2022/01/05 10:34:21;;;;;;;17.92;8.65;;;;;;;6.33;34.04;97184.19;5055710;28;20044;-67
2022/01/05 10:36:49;;;;;;;25.13;8.40;;;;;;;6.45;34.21;97143.94;5089257;28;20046;-67
2022/01/05 10:39:28;;;;;;;;;;;;;;;;;;;;;
2022/01/05 10:41:54;;;;;;;9.87;6.00;;;;;;;6.00;34.41;97160.19;5072342;28;20091;-67
2022/01/05 10:44:23;;;;;;;14.07;6.27;;;;;;;6.44;34.40;97152.81;5076202;28;20082;-67
2022/01/05 10:46:52;;;;;;;7.83;4.00;;;;;;;6.72;34.25;97156.25;5093015;28;20077;-67
2022/01/05 10:49:28;;;;;;;8.57;4.87;;;;;;;6.70;35.61;97147.72;5092763;28;20085;-67
2022/01/05 10:51:55;;;;;;;7.50;4.43;;;;;;;6.10;34.92;97133.53;5093056;28;20131;-67
2022/01/05 10:54:25;;;;;;;23.00;6.00;;;;;;;6.21;35.09;97117.19;5076152;28;20044;-67
2022/01/05 10:56:51;;;;;;;8.23;4.07;;;;;;;5.75;35.47;97113.34;5042774;28;20043;-67
2022/01/05 10:59:35;;;;;;;11.10;5.93;;;;;;;6.26;34.61;97120.03;5094232;28;20040;-68
2022/01/05 11:02:22;;;;;;;6.57;4.00;;;;;;;6.34;34.39;97110.19;5093118;28;20093;-68
2022/01/05 11:04:49;;;;;;;7.57;4.63;;;;;;;6.35;34.66;97106.53;5092787;28;20044;-67
2022/01/05 11:07:23;;;;;;;7.03;4.40;;;;;;;6.17;35.15;97082.50;5059288;28;20138;-67
2022/01/05 11:10:02;;;;;;;7.57;3.43;;;;;;;6.68;34.16;97086.47;5092638;28;20056;-67
2022/01/05 11:12:59;;;;;;;8.38;3.92;;;;;;;6.85;33.77;97087.75;5093865;28;20500;-67
2022/01/05 11:15:30;;;;;;;4.07;3.13;;;;;;;5.85;34.34;97071.72;5092274;28;20047;-67
2022/01/05 11:18:18;;;;;;;2.95;2.40;;;;;;;6.76;33.82;97059.09;5075693;28;20043;-67
2022/01/05 11:20:46;;;;;;;2.27;2.07;;;;;;;6.92;33.87;97092.25;5109701;28;20051;-67
2022/01/05 11:23:13;;;;;;;6.27;2.90;;;;;;;6.66;33.44;97087.66;5093794;28;20052;-66
2022/01/05 11:25:40;;;;;;;2.33;2.13;;;;;;;7.00;33.77;97084.13;5092404;28;20064;-67
2022/01/05 11:28:06;;;;;;;3.73;2.60;;;;;;;6.85;33.58;97071.94;5075461;28;20055;-67
2022/01/05 11:30:32;;;;;;;1.97;1.80;;;;;;;6.95;33.87;97066.25;5091907;28;20044;-67
2022/01/05 11:32:59;;;;;;;5.27;2.63;;;;;;;7.08;33.52;97060.22;5041521;28;20131;-67